sensor_id;sensor_type;location;lat;lon;timestamp;temperature;humidity
30037;DHT22;36325;51.512;-0.382;2023-02-01T00:01:14;5.60;99.90
30037;DHT22;36325;51.512;-0.382;2023-02-01T00:03:42;5.60;99.90
30037;DHT22;36325;51.512;-0.382;2023-02-01T00:11:11;5.60;99.90
30037;DHT22;36325;51.512;-0.382;2023-02-01T00:13:39;5.60;99.90
30037;DHT22;36325;51.512;-0.382;2023-02-01T00:16:09;5.60;99.90
30037;DHT22;36325;51.512;-0.382;2023-02-01T00:18:37;5.60;99.90
30037;DHT22;36325;51.512;-0.382;2023-02-01T00:21:04;5.50;99.90
30037;DHT22;36325;51.512;-0.382;2023-02-01T00:23:34;5.60;99.90
30037;DHT22;36325;51.512;-0.382;2023-02-01T00:26:04;5.60;99.90
30037;DHT22;36325;51.512;-0.382;2023-02-01T00:28:33;5.50;99.90
30037;DHT22;36325;51.512;-0.382;2023-02-01T00:31:01;5.60;99.90
30037;DHT22;36325;51.512;-0.382;2023-02-01T00:33:31;5.60;99.90
30037;DHT22;36325;51.512;-0.382;2023-02-01T00:36:04;5.60;99.90
30037;DHT22;36325;51.512;-0.382;2023-02-01T00:38:33;5.60;99.90
30037;DHT22;36325;51.512;-0.382;2023-02-01T00:41:15;5.60;99.90
30037;DHT22;36325;51.512;-0.382;2023-02-01T00:43:43;5.60;99.90
30037;DHT22;36325;51.512;-0.382;2023-02-01T00:46:12;5.60;99.90
30037;DHT22;36325;51.512;-0.382;2023-02-01T00:48:40;5.60;99.90
30037;DHT22;36325;51.512;-0.382;2023-02-01T00:51:13;5.50;99.90
30037;DHT22;36325;51.512;-0.382;2023-02-01T00:53:41;5.60;99.90
30037;DHT22;36325;51.512;-0.382;2023-02-01T00:56:08;5.60;99.90
30037;DHT22;36325;51.512;-0.382;2023-02-01T00:58:36;5.60;99.90
30037;DHT22;36325;51.512;-0.382;2023-02-01T01:03:42;5.50;99.90
30037;DHT22;36325;51.512;-0.382;2023-02-01T01:06:12;5.60;99.90
30037;DHT22;36325;51.512;-0.382;2023-02-01T01:08:40;5.60;99.90
30037;DHT22;36325;51.512;-0.382;2023-02-01T01:11:18;5.60;99.90
30037;DHT22;36325;51.512;-0.382;2023-02-01T01:13:49;5.60;99.90
30037;DHT22;36325;51.512;-0.382;2023-02-01T01:16:19;5.60;99.90
30037;DHT22;36325;51.512;-0.382;2023-02-01T01:18:48;5.60;99.90
30037;DHT22;36325;51.512;-0.382;2023-02-01T01:21:16;5.60;99.90
30037;DHT22;36325;51.512;-0.382;2023-02-01T01:23:45;5.60;99.90
30037;DHT22;36325;51.512;-0.382;2023-02-01T01:26:25;5.60;99.90
30037;DHT22;36325;51.512;-0.382;2023-02-01T01:28:55;5.60;99.90
30037;DHT22;36325;51.512;-0.382;2023-02-01T01:31:23;5.60;99.90
30037;DHT22;36325;51.512;-0.382;2023-02-01T01:33:53;5.60;99.90
30037;DHT22;36325;51.512;-0.382;2023-02-01T01:36:21;5.70;99.90
30037;DHT22;36325;51.512;-0.382;2023-02-01T01:38:49;5.60;99.90
30037;DHT22;36325;51.512;-0.382;2023-02-01T01:41:24;5.60;99.90
30037;DHT22;36325;51.512;-0.382;2023-02-01T01:46:35;5.70;99.90
30037;DHT22;36325;51.512;-0.382;2023-02-01T01:49:23;5.70;99.90
30037;DHT22;36325;51.512;-0.382;2023-02-01T01:51:55;5.70;99.90
30037;DHT22;36325;51.512;-0.382;2023-02-01T01:57:05;5.70;99.90
30037;DHT22;36325;51.512;-0.382;2023-02-01T01:59:36;5.70;99.90
30037;DHT22;36325;51.512;-0.382;2023-02-01T02:02:04;5.70;99.90
30037;DHT22;36325;51.512;-0.382;2023-02-01T02:04:33;5.70;99.90
30037;DHT22;36325;51.512;-0.382;2023-02-01T02:07:05;5.70;99.90
30037;DHT22;36325;51.512;-0.382;2023-02-01T02:09:34;5.80;99.90
30037;DHT22;36325;51.512;-0.382;2023-02-01T02:12:01;5.80;99.90
30037;DHT22;36325;51.512;-0.382;2023-02-01T02:14:29;5.80;99.90
30037;DHT22;36325;51.512;-0.382;2023-02-01T02:26:12;5.80;99.90
30037;DHT22;36325;51.512;-0.382;2023-02-01T02:34:18;5.60;99.90
30037;DHT22;36325;51.512;-0.382;2023-02-01T02:46:05;5.80;99.90
30037;DHT22;36325;51.512;-0.382;2023-02-01T02:49:48;5.80;99.90
30037;DHT22;36325;51.512;-0.382;2023-02-01T02:51:59;5.70;99.90
30037;DHT22;36325;51.512;-0.382;2023-02-01T02:54:49;5.70;99.90
30037;DHT22;36325;51.512;-0.382;2023-02-01T03:00:17;5.70;99.90
30037;DHT22;36325;51.512;-0.382;2023-02-01T03:03:05;5.70;99.90
30037;DHT22;36325;51.512;-0.382;2023-02-01T03:05:51;5.70;99.90
30037;DHT22;36325;51.512;-0.382;2023-02-01T03:08:22;5.80;99.90
30037;DHT22;36325;51.512;-0.382;2023-02-01T03:11:06;5.80;99.90
30037;DHT22;36325;51.512;-0.382;2023-02-01T03:13:45;5.70;99.90
30037;DHT22;36325;51.512;-0.382;2023-02-01T03:17:02;5.70;99.90
30037;DHT22;36325;51.512;-0.382;2023-02-01T03:19:37;5.70;99.90
30037;DHT22;36325;51.512;-0.382;2023-02-01T03:22:22;5.70;99.90
30037;DHT22;36325;51.512;-0.382;2023-02-01T03:24:56;5.70;99.90
30037;DHT22;36325;51.512;-0.382;2023-02-01T03:32:39;5.70;99.90
30037;DHT22;36325;51.512;-0.382;2023-02-01T03:38:35;5.70;99.90
30037;DHT22;36325;51.512;-0.382;2023-02-01T03:46:32;5.70;99.90
30037;DHT22;36325;51.512;-0.382;2023-02-01T03:49:06;5.70;99.90
30037;DHT22;36325;51.512;-0.382;2023-02-01T03:51:38;5.70;99.90
30037;DHT22;36325;51.512;-0.382;2023-02-01T03:54:10;5.70;99.90
30037;DHT22;36325;51.512;-0.382;2023-02-01T03:56:42;5.70;99.90
30037;DHT22;36325;51.512;-0.382;2023-02-01T03:59:13;5.70;99.90
30037;DHT22;36325;51.512;-0.382;2023-02-01T04:01:41;5.60;99.90
30037;DHT22;36325;51.512;-0.382;2023-02-01T04:04:08;5.70;99.90
30037;DHT22;36325;51.512;-0.382;2023-02-01T04:06:37;5.60;99.90
30037;DHT22;36325;51.512;-0.382;2023-02-01T04:09:05;5.60;99.90
30037;DHT22;36325;51.512;-0.382;2023-02-01T04:11:32;5.60;99.90
30037;DHT22;36325;51.512;-0.382;2023-02-01T04:14:00;5.60;99.90
30037;DHT22;36325;51.512;-0.382;2023-02-01T04:16:32;5.60;99.90
30037;DHT22;36325;51.512;-0.382;2023-02-01T04:21:27;5.50;99.90
30037;DHT22;36325;51.512;-0.382;2023-02-01T04:23:55;5.50;99.90
30037;DHT22;36325;51.512;-0.382;2023-02-01T04:26:23;5.50;99.90
30037;DHT22;36325;51.512;-0.382;2023-02-01T04:28:50;5.50;99.90
30037;DHT22;36325;51.512;-0.382;2023-02-01T04:33:55;5.50;99.90
30037;DHT22;36325;51.512;-0.382;2023-02-01T04:36:24;5.50;99.90
30037;DHT22;36325;51.512;-0.382;2023-02-01T04:38:52;5.50;99.90
30037;DHT22;36325;51.512;-0.382;2023-02-01T04:41:20;5.50;99.90
30037;DHT22;36325;51.512;-0.382;2023-02-01T04:43:51;5.50;99.90
30037;DHT22;36325;51.512;-0.382;2023-02-01T04:46:19;5.40;99.90
30037;DHT22;36325;51.512;-0.382;2023-02-01T04:48:47;5.50;99.90
30037;DHT22;36325;51.512;-0.382;2023-02-01T04:51:14;5.40;99.90
30037;DHT22;36325;51.512;-0.382;2023-02-01T04:53:42;5.30;99.90
30037;DHT22;36325;51.512;-0.382;2023-02-01T04:56:09;5.30;99.90
30037;DHT22;36325;51.512;-0.382;2023-02-01T04:58:36;5.30;99.90
30037;DHT22;36325;51.512;-0.382;2023-02-01T05:01:04;5.30;99.90
30037;DHT22;36325;51.512;-0.382;2023-02-01T05:03:33;5.30;99.90
30037;DHT22;36325;51.512;-0.382;2023-02-01T05:06:01;5.20;99.90
30037;DHT22;36325;51.512;-0.382;2023-02-01T05:08:32;5.30;99.90
30037;DHT22;36325;51.512;-0.382;2023-02-01T05:13:30;5.30;99.90
30037;DHT22;36325;51.512;-0.382;2023-02-01T05:16:16;5.30;99.90
30037;DHT22;36325;51.512;-0.382;2023-02-01T05:18:43;5.20;99.90
30037;DHT22;36325;51.512;-0.382;2023-02-01T05:23:39;5.20;99.90
30037;DHT22;36325;51.512;-0.382;2023-02-01T05:26:25;5.20;99.90
30037;DHT22;36325;51.512;-0.382;2023-02-01T05:28:52;5.20;99.90
30037;DHT22;36325;51.512;-0.382;2023-02-01T05:31:20;5.20;99.90
30037;DHT22;36325;51.512;-0.382;2023-02-01T05:33:48;5.20;99.90
30037;DHT22;36325;51.512;-0.382;2023-02-01T05:36:15;5.20;99.90
30037;DHT22;36325;51.512;-0.382;2023-02-01T05:38:42;5.30;99.90
30037;DHT22;36325;51.512;-0.382;2023-02-01T05:43:38;5.30;99.90
30037;DHT22;36325;51.512;-0.382;2023-02-01T05:48:38;5.30;99.90
30037;DHT22;36325;51.512;-0.382;2023-02-01T05:51:05;5.20;99.90
30037;DHT22;36325;51.512;-0.382;2023-02-01T05:53:33;5.20;99.90
30037;DHT22;36325;51.512;-0.382;2023-02-01T05:56:00;5.20;99.90
30037;DHT22;36325;51.512;-0.382;2023-02-01T05:58:31;5.20;99.90
30037;DHT22;36325;51.512;-0.382;2023-02-01T06:01:03;5.20;99.90
30037;DHT22;36325;51.512;-0.382;2023-02-01T06:06:01;5.10;99.90
30037;DHT22;36325;51.512;-0.382;2023-02-01T06:08:28;5.00;99.90
30037;DHT22;36325;51.512;-0.382;2023-02-01T06:11:03;5.00;99.90
30037;DHT22;36325;51.512;-0.382;2023-02-01T06:13:31;5.00;99.90
30037;DHT22;36325;51.512;-0.382;2023-02-01T06:16:01;5.10;99.90
30037;DHT22;36325;51.512;-0.382;2023-02-01T06:20:59;5.30;99.90
30037;DHT22;36325;51.512;-0.382;2023-02-01T06:23:28;5.50;99.90
30037;DHT22;36325;51.512;-0.382;2023-02-01T06:26:03;5.70;99.90
30037;DHT22;36325;51.512;-0.382;2023-02-01T06:28:32;5.70;99.90
30037;DHT22;36325;51.512;-0.382;2023-02-01T06:31:05;5.80;99.90
30037;DHT22;36325;51.512;-0.382;2023-02-01T06:33:37;5.70;99.90
30037;DHT22;36325;51.512;-0.382;2023-02-01T06:36:06;5.90;99.90
30037;DHT22;36325;51.512;-0.382;2023-02-01T06:38:35;6.10;99.90
30037;DHT22;36325;51.512;-0.382;2023-02-01T06:41:03;6.10;99.90
30037;DHT22;36325;51.512;-0.382;2023-02-01T06:43:31;6.10;99.90
30037;DHT22;36325;51.512;-0.382;2023-02-01T06:46:02;6.20;99.90
30037;DHT22;36325;51.512;-0.382;2023-02-01T06:48:35;6.20;99.90
30037;DHT22;36325;51.512;-0.382;2023-02-01T06:51:04;6.30;99.90
30037;DHT22;36325;51.512;-0.382;2023-02-01T06:53:31;6.30;99.90
30037;DHT22;36325;51.512;-0.382;2023-02-01T06:56:02;6.40;99.90
30037;DHT22;36325;51.512;-0.382;2023-02-01T06:58:33;6.40;99.90
30037;DHT22;36325;51.512;-0.382;2023-02-01T07:01:07;6.40;99.90
30037;DHT22;36325;51.512;-0.382;2023-02-01T07:03:35;6.40;99.90
30037;DHT22;36325;51.512;-0.382;2023-02-01T07:06:03;6.40;99.90
30037;DHT22;36325;51.512;-0.382;2023-02-01T07:08:33;6.50;99.90
30037;DHT22;36325;51.512;-0.382;2023-02-01T07:11:04;6.50;99.90
30037;DHT22;36325;51.512;-0.382;2023-02-01T07:13:32;6.50;99.90
30037;DHT22;36325;51.512;-0.382;2023-02-01T07:16:01;6.50;99.90
30037;DHT22;36325;51.512;-0.382;2023-02-01T07:18:31;6.50;99.90
30037;DHT22;36325;51.512;-0.382;2023-02-01T07:20:59;6.50;99.90
30037;DHT22;36325;51.512;-0.382;2023-02-01T07:23:27;6.50;99.90
30037;DHT22;36325;51.512;-0.382;2023-02-01T07:25:57;6.50;99.90
30037;DHT22;36325;51.512;-0.382;2023-02-01T07:28:26;6.60;99.90
30037;DHT22;36325;51.512;-0.382;2023-02-01T07:30:55;6.50;99.90
30037;DHT22;36325;51.512;-0.382;2023-02-01T07:33:23;6.60;99.90
30037;DHT22;36325;51.512;-0.382;2023-02-01T07:35:53;6.60;99.90
30037;DHT22;36325;51.512;-0.382;2023-02-01T07:40:57;6.60;99.90
30037;DHT22;36325;51.512;-0.382;2023-02-01T07:43:27;6.50;99.90
30037;DHT22;36325;51.512;-0.382;2023-02-01T07:45:55;6.60;99.90
30037;DHT22;36325;51.512;-0.382;2023-02-01T07:48:26;6.50;99.90
30037;DHT22;36325;51.512;-0.382;2023-02-01T07:51:11;6.50;99.90
30037;DHT22;36325;51.512;-0.382;2023-02-01T07:56:15;6.50;99.90
30037;DHT22;36325;51.512;-0.382;2023-02-01T07:58:49;6.60;99.90
30037;DHT22;36325;51.512;-0.382;2023-02-01T08:01:27;6.60;99.90
30037;DHT22;36325;51.512;-0.382;2023-02-01T08:09:19;6.70;99.90
30037;DHT22;36325;51.512;-0.382;2023-02-01T08:11:49;6.70;99.90
30037;DHT22;36325;51.512;-0.382;2023-02-01T08:14:16;6.70;99.90
30037;DHT22;36325;51.512;-0.382;2023-02-01T08:16:44;6.70;99.90
30037;DHT22;36325;51.512;-0.382;2023-02-01T08:19:13;6.80;99.90
30037;DHT22;36325;51.512;-0.382;2023-02-01T08:21:40;6.90;99.90
30037;DHT22;36325;51.512;-0.382;2023-02-01T08:24:09;6.90;99.90
30037;DHT22;36325;51.512;-0.382;2023-02-01T08:26:37;6.90;99.90
30037;DHT22;36325;51.512;-0.382;2023-02-01T08:29:06;7.00;99.90
30037;DHT22;36325;51.512;-0.382;2023-02-01T08:31:35;7.00;99.90
30037;DHT22;36325;51.512;-0.382;2023-02-01T08:34:03;7.20;99.90
30037;DHT22;36325;51.512;-0.382;2023-02-01T08:36:31;7.10;99.90
30037;DHT22;36325;51.512;-0.382;2023-02-01T08:39:04;7.20;99.90
30037;DHT22;36325;51.512;-0.382;2023-02-01T08:41:36;3.90;99.90
30037;DHT22;36325;51.512;-0.382;2023-02-01T08:44:04;7.40;99.90
30037;DHT22;36325;51.512;-0.382;2023-02-01T08:46:36;7.50;99.90
30037;DHT22;36325;51.512;-0.382;2023-02-01T08:49:04;7.50;99.90
30037;DHT22;36325;51.512;-0.382;2023-02-01T08:53:59;7.70;99.90
30037;DHT22;36325;51.512;-0.382;2023-02-01T08:56:29;7.80;99.90
30037;DHT22;36325;51.512;-0.382;2023-02-01T08:58:57;7.70;99.90
30037;DHT22;36325;51.512;-0.382;2023-02-01T09:01:24;7.80;99.90
30037;DHT22;36325;51.512;-0.382;2023-02-01T09:03:53;7.70;99.90
30037;DHT22;36325;51.512;-0.382;2023-02-01T09:06:21;7.80;99.90
30037;DHT22;36325;51.512;-0.382;2023-02-01T09:08:48;7.80;99.90
30037;DHT22;36325;51.512;-0.382;2023-02-01T09:11:17;7.80;99.90
30037;DHT22;36325;51.512;-0.382;2023-02-01T09:13:47;7.80;99.90
30037;DHT22;36325;51.512;-0.382;2023-02-01T09:16:15;7.80;99.90
30037;DHT22;36325;51.512;-0.382;2023-02-01T09:21:34;7.80;99.90
30037;DHT22;36325;51.512;-0.382;2023-02-01T09:24:03;7.80;99.90
30037;DHT22;36325;51.512;-0.382;2023-02-01T09:31:28;9.00;99.90
30037;DHT22;36325;51.512;-0.382;2023-02-01T09:33:56;9.00;99.90
30037;DHT22;36325;51.512;-0.382;2023-02-01T09:36:24;9.30;99.90
30037;DHT22;36325;51.512;-0.382;2023-02-01T09:38:52;9.40;99.90
30037;DHT22;36325;51.512;-0.382;2023-02-01T09:41:43;9.60;99.90
30037;DHT22;36325;51.512;-0.382;2023-02-01T09:46:47;9.90;99.90
30037;DHT22;36325;51.512;-0.382;2023-02-01T09:49:22;9.90;99.90
30037;DHT22;36325;51.512;-0.382;2023-02-01T09:51:53;9.50;99.90
30037;DHT22;36325;51.512;-0.382;2023-02-01T09:54:34;8.60;99.90
30037;DHT22;36325;51.512;-0.382;2023-02-01T09:57:13;9.80;99.90
30037;DHT22;36325;51.512;-0.382;2023-02-01T09:59:46;10.10;99.90
30037;DHT22;36325;51.512;-0.382;2023-02-01T10:02:21;10.60;99.90
30037;DHT22;36325;51.512;-0.382;2023-02-01T10:04:53;10.70;99.90
30037;DHT22;36325;51.512;-0.382;2023-02-01T10:07:29;10.90;99.90
30037;DHT22;36325;51.512;-0.382;2023-02-01T10:10:21;11.00;99.90
30037;DHT22;36325;51.512;-0.382;2023-02-01T10:13:30;11.30;99.90
30037;DHT22;36325;51.512;-0.382;2023-02-01T10:16:34;11.30;99.90
30037;DHT22;36325;51.512;-0.382;2023-02-01T10:19:37;11.30;99.90
30037;DHT22;36325;51.512;-0.382;2023-02-01T10:22:11;11.10;99.90
30037;DHT22;36325;51.512;-0.382;2023-02-01T10:27:36;11.70;99.90
30037;DHT22;36325;51.512;-0.382;2023-02-01T10:30:16;11.70;99.90
30037;DHT22;36325;51.512;-0.382;2023-02-01T10:32:45;11.90;99.90
30037;DHT22;36325;51.512;-0.382;2023-02-01T10:35:21;12.20;99.90
30037;DHT22;36325;51.512;-0.382;2023-02-01T10:37:49;12.30;99.90
30037;DHT22;36325;51.512;-0.382;2023-02-01T10:40:24;12.30;99.90
30037;DHT22;36325;51.512;-0.382;2023-02-01T10:42:59;12.60;99.90
30037;DHT22;36325;51.512;-0.382;2023-02-01T10:45:29;12.80;99.90
30037;DHT22;36325;51.512;-0.382;2023-02-01T10:47:59;12.80;99.90
30037;DHT22;36325;51.512;-0.382;2023-02-01T10:50:44;12.90;99.90
30037;DHT22;36325;51.512;-0.382;2023-02-01T10:53:44;13.30;99.90
30037;DHT22;36325;51.512;-0.382;2023-02-01T10:58:49;13.80;99.90
30037;DHT22;36325;51.512;-0.382;2023-02-01T11:01:30;13.80;99.90
30037;DHT22;36325;51.512;-0.382;2023-02-01T11:03:58;14.00;99.90
30037;DHT22;36325;51.512;-0.382;2023-02-01T11:06:37;13.80;99.90
30037;DHT22;36325;51.512;-0.382;2023-02-01T11:14:39;14.40;99.90
30037;DHT22;36325;51.512;-0.382;2023-02-01T11:19:58;14.50;99.90
30037;DHT22;36325;51.512;-0.382;2023-02-01T11:22:27;14.50;99.90
30037;DHT22;36325;51.512;-0.382;2023-02-01T11:25:01;14.60;99.90
30037;DHT22;36325;51.512;-0.382;2023-02-01T11:27:40;14.30;99.90
30037;DHT22;36325;51.512;-0.382;2023-02-01T11:30:33;14.30;99.90
30037;DHT22;36325;51.512;-0.382;2023-02-01T11:33:05;14.80;99.90
30037;DHT22;36325;51.512;-0.382;2023-02-01T11:35:44;15.00;99.90
30037;DHT22;36325;51.512;-0.382;2023-02-01T11:38:33;15.40;99.90
30037;DHT22;36325;51.512;-0.382;2023-02-01T11:44:00;15.70;99.90
30037;DHT22;36325;51.512;-0.382;2023-02-01T11:46:34;15.30;99.90
30037;DHT22;36325;51.512;-0.382;2023-02-01T11:52:08;15.60;99.90
30037;DHT22;36325;51.512;-0.382;2023-02-01T11:54:44;15.60;99.90
30037;DHT22;36325;51.512;-0.382;2023-02-01T11:58:05;15.90;99.90
30037;DHT22;36325;51.512;-0.382;2023-02-01T12:20:41;14.90;99.90
30037;DHT22;36325;51.512;-0.382;2023-02-01T12:43:09;12.40;99.90
30037;DHT22;36325;51.512;-0.382;2023-02-01T12:45:50;12.60;99.90
30037;DHT22;36325;51.512;-0.382;2023-02-01T12:48:34;12.80;99.90
30037;DHT22;36325;51.512;-0.382;2023-02-01T12:51:10;12.70;99.90
30037;DHT22;36325;51.512;-0.382;2023-02-01T12:54:00;12.60;99.90
30037;DHT22;36325;51.512;-0.382;2023-02-01T12:56:46;12.50;99.90
30037;DHT22;36325;51.512;-0.382;2023-02-01T13:02:28;12.70;99.90
30037;DHT22;36325;51.512;-0.382;2023-02-01T13:08:12;13.10;99.90
30037;DHT22;36325;51.512;-0.382;2023-02-01T13:10:47;14.00;99.90
30037;DHT22;36325;51.512;-0.382;2023-02-01T13:16:40;14.20;99.90
30037;DHT22;36325;51.512;-0.382;2023-02-01T13:19:10;13.70;99.90
30037;DHT22;36325;51.512;-0.382;2023-02-01T13:21:55;13.00;99.90
30037;DHT22;36325;51.512;-0.382;2023-02-01T13:24:45;13.00;99.90
30037;DHT22;36325;51.512;-0.382;2023-02-01T13:27:15;12.50;99.90
30037;DHT22;36325;51.512;-0.382;2023-02-01T13:29:52;12.50;99.90
30037;DHT22;36325;51.512;-0.382;2023-02-01T13:32:30;12.30;99.90
30037;DHT22;36325;51.512;-0.382;2023-02-01T13:43:43;11.70;99.90
30037;DHT22;36325;51.512;-0.382;2023-02-01T13:46:11;11.70;99.90
30037;DHT22;36325;51.512;-0.382;2023-02-01T13:48:54;11.60;99.90
30037;DHT22;36325;51.512;-0.382;2023-02-01T13:51:36;11.50;99.90
30037;DHT22;36325;51.512;-0.382;2023-02-01T13:54:05;11.40;99.90
30037;DHT22;36325;51.512;-0.382;2023-02-01T13:56:43;11.40;99.90
30037;DHT22;36325;51.512;-0.382;2023-02-01T13:59:37;11.50;99.90
30037;DHT22;36325;51.512;-0.382;2023-02-01T14:02:44;11.40;99.90
30037;DHT22;36325;51.512;-0.382;2023-02-01T14:08:13;11.40;99.90
30037;DHT22;36325;51.512;-0.382;2023-02-01T14:10:58;11.40;99.90
30037;DHT22;36325;51.512;-0.382;2023-02-01T14:18:57;11.30;99.90
30037;DHT22;36325;51.512;-0.382;2023-02-01T14:21:34;11.30;99.90
30037;DHT22;36325;51.512;-0.382;2023-02-01T14:26:44;11.40;99.90
30037;DHT22;36325;51.512;-0.382;2023-02-01T14:42:24;11.80;99.90
30037;DHT22;36325;51.512;-0.382;2023-02-01T14:47:36;11.70;99.90
30037;DHT22;36325;51.512;-0.382;2023-02-01T14:50:39;11.70;99.90
30037;DHT22;36325;51.512;-0.382;2023-02-01T14:55:58;11.70;99.90
30037;DHT22;36325;51.512;-0.382;2023-02-01T15:01:25;11.80;99.90
30037;DHT22;36325;51.512;-0.382;2023-02-01T15:09:25;11.70;99.90
30037;DHT22;36325;51.512;-0.382;2023-02-01T15:14:43;11.70;99.90
30037;DHT22;36325;51.512;-0.382;2023-02-01T15:17:23;11.70;99.90
30037;DHT22;36325;51.512;-0.382;2023-02-01T15:19:59;11.60;99.90
30037;DHT22;36325;51.512;-0.382;2023-02-01T15:22:29;11.60;99.90
30037;DHT22;36325;51.512;-0.382;2023-02-01T15:24:59;11.60;99.90
30037;DHT22;36325;51.512;-0.382;2023-02-01T15:27:31;11.60;99.90
30037;DHT22;36325;51.512;-0.382;2023-02-01T15:30:06;11.20;99.90
30037;DHT22;36325;51.512;-0.382;2023-02-01T15:32:37;11.40;99.90
30037;DHT22;36325;51.512;-0.382;2023-02-01T15:35:30;11.40;99.90
30037;DHT22;36325;51.512;-0.382;2023-02-01T15:41:11;11.30;99.90
30037;DHT22;36325;51.512;-0.382;2023-02-01T15:43:43;11.30;99.90
30037;DHT22;36325;51.512;-0.382;2023-02-01T15:46:23;11.30;99.90
30037;DHT22;36325;51.512;-0.382;2023-02-01T15:48:53;11.30;99.90
30037;DHT22;36325;51.512;-0.382;2023-02-01T15:51:27;11.20;99.90
30037;DHT22;36325;51.512;-0.382;2023-02-01T15:56:34;11.20;99.90
30037;DHT22;36325;51.512;-0.382;2023-02-01T15:59:03;11.30;99.90
30037;DHT22;36325;51.512;-0.382;2023-02-01T16:01:36;13.50;99.90
30037;DHT22;36325;51.512;-0.382;2023-02-01T16:09:18;10.90;99.90
30037;DHT22;36325;51.512;-0.382;2023-02-01T16:14:20;10.80;99.90
30037;DHT22;36325;51.512;-0.382;2023-02-01T16:16:48;10.80;99.90
30037;DHT22;36325;51.512;-0.382;2023-02-01T16:19:16;10.70;99.90
30037;DHT22;36325;51.512;-0.382;2023-02-01T16:21:44;10.70;99.90
30037;DHT22;36325;51.512;-0.382;2023-02-01T16:24:13;10.70;99.90
30037;DHT22;36325;51.512;-0.382;2023-02-01T16:26:41;10.60;99.90
30037;DHT22;36325;51.512;-0.382;2023-02-01T16:29:08;10.60;99.90
30037;DHT22;36325;51.512;-0.382;2023-02-01T16:31:37;10.50;99.90
30037;DHT22;36325;51.512;-0.382;2023-02-01T16:34:09;10.50;99.90
30037;DHT22;36325;51.512;-0.382;2023-02-01T16:36:38;10.50;99.90
30037;DHT22;36325;51.512;-0.382;2023-02-01T16:39:11;10.40;99.90
30037;DHT22;36325;51.512;-0.382;2023-02-01T16:41:39;10.40;99.90
30037;DHT22;36325;51.512;-0.382;2023-02-01T16:44:10;10.30;99.90
30037;DHT22;36325;51.512;-0.382;2023-02-01T16:46:43;10.30;99.90
30037;DHT22;36325;51.512;-0.382;2023-02-01T16:49:25;10.30;99.90
30037;DHT22;36325;51.512;-0.382;2023-02-01T16:51:57;10.20;99.90
30037;DHT22;36325;51.512;-0.382;2023-02-01T16:54:26;10.20;99.90
30037;DHT22;36325;51.512;-0.382;2023-02-01T16:56:53;10.00;99.90
30037;DHT22;36325;51.512;-0.382;2023-02-01T17:01:51;10.10;99.90
30037;DHT22;36325;51.512;-0.382;2023-02-01T17:06:48;10.40;99.90
30037;DHT22;36325;51.512;-0.382;2023-02-01T17:11:44;9.90;99.90
30037;DHT22;36325;51.512;-0.382;2023-02-01T17:14:17;9.90;99.90
30037;DHT22;36325;51.512;-0.382;2023-02-01T17:16:47;9.80;99.90
30037;DHT22;36325;51.512;-0.382;2023-02-01T17:19:18;9.80;99.90
30037;DHT22;36325;51.512;-0.382;2023-02-01T17:21:55;9.70;99.90
30037;DHT22;36325;51.512;-0.382;2023-02-01T17:24:30;9.70;99.90
30037;DHT22;36325;51.512;-0.382;2023-02-01T17:27:14;9.70;99.90
30037;DHT22;36325;51.512;-0.382;2023-02-01T17:29:43;9.60;99.90
30037;DHT22;36325;51.512;-0.382;2023-02-01T17:32:18;9.60;99.90
30037;DHT22;36325;51.512;-0.382;2023-02-01T17:34:46;9.50;99.90
30037;DHT22;36325;51.512;-0.382;2023-02-01T17:37:28;9.50;99.90
30037;DHT22;36325;51.512;-0.382;2023-02-01T17:39:56;9.50;99.90
30037;DHT22;36325;51.512;-0.382;2023-02-01T17:42:25;9.50;99.90
30037;DHT22;36325;51.512;-0.382;2023-02-01T17:44:56;9.40;99.90
30037;DHT22;36325;51.512;-0.382;2023-02-01T17:47:24;9.40;99.90
30037;DHT22;36325;51.512;-0.382;2023-02-01T17:49:52;9.40;99.90
30037;DHT22;36325;51.512;-0.382;2023-02-01T17:52:23;9.40;99.90
30037;DHT22;36325;51.512;-0.382;2023-02-01T17:57:20;9.40;99.90
30037;DHT22;36325;51.512;-0.382;2023-02-01T17:59:48;9.40;99.90
30037;DHT22;36325;51.512;-0.382;2023-02-01T18:02:24;9.40;99.90
30037;DHT22;36325;51.512;-0.382;2023-02-01T18:05:00;9.50;99.90
30037;DHT22;36325;51.512;-0.382;2023-02-01T18:07:37;9.50;99.90
30037;DHT22;36325;51.512;-0.382;2023-02-01T18:10:18;9.50;99.90
30037;DHT22;36325;51.512;-0.382;2023-02-01T18:12:52;9.50;99.90
30037;DHT22;36325;51.512;-0.382;2023-02-01T18:15:22;9.60;99.90
30037;DHT22;36325;51.512;-0.382;2023-02-01T18:17:50;9.60;99.90
30037;DHT22;36325;51.512;-0.382;2023-02-01T18:20:23;9.60;99.90
30037;DHT22;36325;51.512;-0.382;2023-02-01T18:22:51;9.60;99.90
30037;DHT22;36325;51.512;-0.382;2023-02-01T18:25:24;9.60;99.90
30037;DHT22;36325;51.512;-0.382;2023-02-01T18:27:53;9.60;99.90
30037;DHT22;36325;51.512;-0.382;2023-02-01T18:30:24;9.60;99.90
30037;DHT22;36325;51.512;-0.382;2023-02-01T18:35:31;9.50;99.90
30037;DHT22;36325;51.512;-0.382;2023-02-01T18:40:32;9.50;99.90
30037;DHT22;36325;51.512;-0.382;2023-02-01T18:43:00;9.40;99.90
30037;DHT22;36325;51.512;-0.382;2023-02-01T18:45:32;9.40;99.90
30037;DHT22;36325;51.512;-0.382;2023-02-01T18:48:02;9.40;99.90
30037;DHT22;36325;51.512;-0.382;2023-02-01T18:50:34;9.40;99.90
30037;DHT22;36325;51.512;-0.382;2023-02-01T18:53:03;9.30;99.90
30037;DHT22;36325;51.512;-0.382;2023-02-01T18:55:31;9.30;99.90
30037;DHT22;36325;51.512;-0.382;2023-02-01T18:58:00;9.30;99.90
30037;DHT22;36325;51.512;-0.382;2023-02-01T19:05:24;9.30;99.90
30037;DHT22;36325;51.512;-0.382;2023-02-01T19:07:53;9.20;99.90
30037;DHT22;36325;51.512;-0.382;2023-02-01T19:10:22;9.20;99.90
30037;DHT22;36325;51.512;-0.382;2023-02-01T19:12:52;9.20;99.90
30037;DHT22;36325;51.512;-0.382;2023-02-01T19:15:23;9.20;99.90
30037;DHT22;36325;51.512;-0.382;2023-02-01T19:17:53;9.10;99.90
30037;DHT22;36325;51.512;-0.382;2023-02-01T19:20:23;9.10;99.90
30037;DHT22;36325;51.512;-0.382;2023-02-01T19:22:52;9.10;99.90
30037;DHT22;36325;51.512;-0.382;2023-02-01T19:25:25;9.10;99.90
30037;DHT22;36325;51.512;-0.382;2023-02-01T19:27:53;9.10;99.90
30037;DHT22;36325;51.512;-0.382;2023-02-01T19:30:22;9.10;99.90
30037;DHT22;36325;51.512;-0.382;2023-02-01T19:32:51;9.10;99.90
30037;DHT22;36325;51.512;-0.382;2023-02-01T19:35:20;9.00;99.90
30037;DHT22;36325;51.512;-0.382;2023-02-01T19:37:48;9.00;99.90
30037;DHT22;36325;51.512;-0.382;2023-02-01T19:40:17;9.10;99.90
30037;DHT22;36325;51.512;-0.382;2023-02-01T19:42:48;9.10;99.90
30037;DHT22;36325;51.512;-0.382;2023-02-01T19:45:16;9.00;99.90
30037;DHT22;36325;51.512;-0.382;2023-02-01T19:47:45;9.00;99.90
30037;DHT22;36325;51.512;-0.382;2023-02-01T19:50:17;9.00;99.90
30037;DHT22;36325;51.512;-0.382;2023-02-01T19:52:46;9.00;99.90
30037;DHT22;36325;51.512;-0.382;2023-02-01T19:55:13;9.00;99.90
30037;DHT22;36325;51.512;-0.382;2023-02-01T19:57:41;9.00;99.90
30037;DHT22;36325;51.512;-0.382;2023-02-01T20:00:10;9.00;99.90
30037;DHT22;36325;51.512;-0.382;2023-02-01T20:02:44;8.90;99.90
30037;DHT22;36325;51.512;-0.382;2023-02-01T20:05:13;8.90;99.90
30037;DHT22;36325;51.512;-0.382;2023-02-01T20:07:42;8.90;99.90
30037;DHT22;36325;51.512;-0.382;2023-02-01T20:10:34;8.90;99.90